👁19,925views
Building & Condo Information

The Vibe45555 Yale Building

45555 Yale Rd.

Chilliwack, BC V2P 0A9

  • Levels4
  • Suites220
  • StatusCompleted
  • Built2008
  • Title to LandFreehold Strata
  • Strata PlanBCS2854
  • ConstructionFrame - Wood
  • AreaChilliwack
  • NeighbourhoodChilliwack W Young-Well
$332,931Avg Asking
6Sold (1yr)
$311,450Avg Sold
$375Avg $/Sqft

Overview

Vibe - 45555 Yale Road Chilliwack, BC V2P 0A9, BCS2854 - Located on Yale Road West and Airport Road in the desirable neighbourhood of W Young-Well in Chilliwack. This is a central location that is close to public transit, Cottonwood mall, Shoppers Drug Mart, Safeway, restaurants, Leisure Centre, Heritage Park, Chilliwack General Hospital, University College of the Fraser Valley, secondary and elementary schools, recreation and much more! Direct access to highways allows an easy commute to surrounding destinations including Langley, Abbotsford and Surrey. 

Vibe is a four storey building that offers 220 luxury condos that were quality built by Rempel Development Group in 2008. Interiors are beautifully designed with a choice of two colour schemes by Creative DesignWorks, electric baseboard heating, contemporary 1" horizontal Venetian blinds on all windows, 36 oz stain resistant carpeting, Decora style rocker light switches, doubled paneled door at front entrance and a spacious ground floor patio or balcony that are great for relaxing. Gourmet kitchens feature porcelain tile flooring, handset tile backsplash, a breakfast bar, energy efficient appliances by Frigidaire, flat panel laminate cabinetry with stainless steel pulls, a microwave range hood fan, a rollout bank of drawers, a double stainless steel sink with an in-sink disposal and a chrome single lever with a vegetable sprayer. Elegant bathroom feature a full size vanity mirror with a designer light bar, tapered flat panel cabinetry in white, deep soaker tub or shower in ensuite with handset ceramic tile and a ceramic china basin with a chrome faucet. Optional features include crown mouldings, an electric fireplace with a custom wood mantle surround, stainless steel appliances, an in-suite security system, hardwood laminate plank flooring, stacking washer and dryer, granite countertops in kitchens and bathrooms and handset ceramic tile flooring in bathrooms.

Vibe is a professionally maintained building with quality finishing, details and impressive architecture by Focus Architecture Inc that have a 2-5-10 Home Warranty Program. Exteriors include multi-paned windows, inner courtyard gardens with seating areas, tree lined walkways, adjoining open greenspace and manicured hedges. Residents can have a piece of mind with security features including hard-wired smoke detectors in every home, a fire sprinkler system, a solid brass deadbolt lock on entrance doors, an enterphone system at the main entrance so residents can pre-screen visitors and secured underground parking with bright lighting.

This community offers many amenities for residents to enjoy including an exercise studio with cardio machines and free weights, a billiards room with a pool table, a library, a business centre, meeting rooms, a fireplace lounge and a common kitchen with dining areas to host parties. This is a multiple building development that includes 45555, 45559, 45561 and 45567 West Yale Road.Vibe is one of Chilliwack's most sought after urban condo communities where homes offer elegance and comfort suited for every lifestyle - Live at Vibe!

 

Les Twarog
Les Twarog & Team
RE/MAX Crest Realty · Your Vibe specialist
Questions on a listing, a private showing, or what your unit is worth? Talk to the team that knows this building.

For Sale in Vibe & Complex

DateAddressStatusBedBathPriceSqftDOMStrata FeeTaxListed By
2026-07-13 209 45567 Yale Rd. Active 2 2 $419,900 ($424/sf) 991 $562 $1665 (2025) RE/MAX Crest Realty
2025-05-15 307 45555 Yale Rd. Active 2 2 $399,900 ($469/sf) 852 $476 $1432 (2024) Selmak Realty Limited
2026-04-15 304 45555 Yale Rd. Active 2 2 $399,000 ($468/sf) 852 $476 $1551 (2025) Team 3000 Realty Ltd.
2026-06-15 103 45561 Yale Rd. Active 2 2 $369,900 ($435/sf) 851 $483 $1532 (2025) Century 21 Coastal Realty Ltd.
2026-06-25 204 45559 Yale Rd. Active 2 2 $359,900 ($405/sf) 888 $508 $1567 (2025) Century 21 Coastal Realty Ltd.
2026-07-21 203 45561 Yale Rd. Active 2 2 $345,900 ($406/sf) 851 $483 $1545 (2025) RE/MAX Truepeak Realty
2026-07-06 408 45561 Yale Rd. Active 2 2 $314,900 ($367/sf) 857 $489 $1590 (2025) Oneflatfee.ca
2026-06-12 101 45567 Yale Rd. Active 2 2 $314,900 ($362/sf) 869 $476 $1493 (2025) Pathway Executives Realty Inc.
2025-10-23 215 45567 Yale Rd. Active 1 1 $310,000 ($488/sf) 635 $354 $1280 (2025) Sutton Group-West Coast Realty
2026-03-30 402 45559 Yale Rd. Active 1 1 $299,000 ($413/sf) 724 $397 $1397 (2025) One Percent Realty Ltd.
2026-03-11 201 45559 Yale Rd. Active 1 1 $284,900 ($441/sf) 646 $354 $1274 (2025) Engel & Volkers Vancouver (Branch)
2026-04-28 214 45555 Yale Rd. Active 1 1 $265,000 ($428/sf) 619 $354 $1274 (2025) RE/MAX Blueprint
2026-07-08 113 45555 Yale Rd. Active 1 1 $244,900 ($396/sf) 619 $354 $1262 (2025) RE/MAX Nyda Realty Inc.
Avg$332,931789

Vibe Sold History (last 24 months)

Sold DateAddressBedBathSqftAskingSold PriceDOMStrata FeeTaxListed By
2026-05-28 101 45555 Yale Rd. 1 1 720 $299,999 $290,000 ($403/sf) $397 $1355 (2025) RE/MAX Nyda Realty Inc. (Vedder North)
2026-05-22 108 45555 Yale Rd. 2 2 855 $299,999 $295,000 ($345/sf) $476 $1498 (2025) Pathway Executives Realty Inc.
2026-05-11 402 45561 Yale Rd. 2 2 856 $324,900 $300,000 ($350/sf) $406 $1590 (2025) RE/MAX Nyda Realty Inc.
2026-03-24 109 45555 Yale Rd. 2 2 842 $299,999 $290,000 ($344/sf) $476 $1498 (2025) Pathway Executives Realty Inc.
2026-01-28 111 45555 Yale Rd. 2 2 839 $339,000 $339,000 ($404/sf) $476 $1424 (2024) Select Real Estate
2025-10-24 211 45559 Yale Rd. 2 2 879 $374,900 $354,700 ($404/sf) $480 $1465 (2024) RE/MAX Nyda Realty Inc. (Vedder North)
2025-08-13 115 45559 Yale Rd. 2 1 704 $309,900 $300,000 ($426/sf) $397 $1268 (2024) Royal Lepage Wheeler Cheam
2025-07-28 101 45555 Yale Rd. 2 1 720 $329,900 $315,000 ($438/sf) $397 $1266 (2024) RE/MAX All Points Realty
2025-07-24 414 45555 Yale Rd. 1 1 635 $278,888 $250,000 ($394/sf) $354 $1219 (2024) eXp Realty
2025-07-24 106 45561 Yale Rd. 2 2 849 $374,900 $337,000 ($397/sf) $476 $1398 (2024) Pathway Executives Realty Inc.
2025-07-03 205 45555 Yale Rd. 2 2 851 $349,888 $337,000 ($396/sf) $480 $1442 (2024) RE/MAX City Realty
2025-06-04 205 45559 Yale Rd. 2 2 855 $389,000 $350,000 ($409/sf) $476 $1414 (2024) PG Direct Realty Ltd (AOIR)
2025-05-05 301 45567 Yale Rd. 2 2 868 $359,000 $340,000 ($392/sf) $477 $1429 (2024) RE/MAX Blueprint (Abbotsford)
2025-05-05 306 45561 Yale Rd. 2 2 837 $309,000 $304,000 ($363/sf) $476 $1431 (2024) Century 21 Creekside Realty (Luckakuck)
2025-04-07 204 45559 Yale Rd. 2 2 888 $369,900 $360,000 ($405/sf) $507 $1462 (2024) Royal Lepage Wheeler Cheam
2025-02-28 2 2 911 $414,000 $374,000 ($411/sf) $507 $1531 (2024) eXp Realty of Canada, Inc.
2025-02-28 204 45555 Yale Rd. 2 2 857 $379,000 $366,500 ($428/sf) $476 $1436 (2024) Stonehaus Realty Corp.
2025-02-18 413 45555 Yale Rd. 2 1 721 $348,900 $330,000 ($458/sf) $397 $1308 (2024) RE/MAX Nyda Realty Inc.
2025-02-06 401 45555 Yale Rd. 2 1 720 $314,900 $308,000 ($428/sf) $397 $1308 (2024) Oakwyn Realty Encore
2025-01-15 210 45561 Yale Rd. 1 1 718 $298,900 $290,000 ($404/sf) $403 $1282 (2024) RE/MAX Lifestyles Realty (Langley)
2025-01-11 410 45567 Yale Rd. 2 2 837 $375,000 $365,000 ($436/sf) $477 $1448 (2024)
2024-12-19 114 45555 Yale Rd. 1 1 619 $279,900 $270,000 ($436/sf) $354 $1178 (2024) RE/MAX Nyda Realty Inc.
2024-12-14 309 45561 Yale Rd. 1 1 702 $314,999 $288,000 ($410/sf) $397 $1295 (2024) Century 21 Creekside Realty (Luckakuck)
2024-10-22 413 45555 Yale Rd. 1 1 721 $299,900 $275,000 ($381/sf) $397 $1308 (2024) RE/MAX Nyda Realty (Agassiz)
2024-10-14 401 45559 Yale Rd. 1 1 620 $250,888 $247,000 ($398/sf) $354 $1218 (2024) Macdonald Realty (Langley)

Sold data from the MLS® feed for strata plan BCS2854. Showing the last 24 months by default; expand for up to 80 recent sales.

Vibe Market Summary

Vibe at 45555 Yale Rd. — currently 13 active listings averaging $332,931. In the past year 6 units sold at an average of $311,450.

Active Listings13
Avg Asking Price$332,931
Sold (1 Year)6
Avg Sold Price$311,450
Avg $/Sqft$375

Value & Financing

Price Positioning
$423 /sq ft
Active listings here average $423/sf vs $384/sf across Chilliwack W Young-Well.
10% above area average
Mortgage Snapshot
$1,173 /mo
Entry price (from)$244,900
20% down payment$48,980
Rate / amortization5.24% · 25 yr
Estimate only — not a lending offer. Rate illustrative; confirm with your mortgage advisor.

Market Reports

Live market intelligence for this building's segments — active inventory, medians, ranges & trends. Opens in a new tab.

📊 Chilliwack Condo Market Reports
Market data by RealtySuite

Property Documents

Location, Street View & Aerial

Street View⤢ Expand

Amenities / Features

Club House
Elevator
Exercise Centre
In Suite Laundry

Maintenance Fees Include

Garbage Pickup
Gardening
Hot Water
Management
Recreation Facility

Location / Site Influences

Central Location
Recreation Nearby
Shopping Nearby

Construction & Development

ConstructionFrame - Wood
Exterior FinishVinyl
RoofAsphalt
FoundationConcrete Perimeter
Rain ScreenFull
DeveloperRempel Development Group Ltd
MarketerPlatinum Project Marketing

Strata Information

Strata PlanBCS2854
Building TypeStrata
Title to LandFreehold Strata
Units in Strata220
Units in Development220
Management CompanyStratatech — 604-393-3846
Bylaws / RestrictionsPETS ALLOWED W/REST.,RENTALS ALLOWED
Parking / StorageGarage; Underground

Frequently Asked Questions — Vibe

What year was Vibe built?
Vibe was built in 2008.
How many units are in Vibe?
Vibe has 220 strata units across 4 levels.
What amenities does Vibe offer?
CLUB HOUSE, ELEVATOR, EXERCISE CENTRE, IN SUITE LAUNDRY.
Is Vibe pet-friendly, and what are the bylaws?
Vibe bylaws/restrictions: PETS ALLOWED W/REST.,RENTALS ALLOWED.
Who is the property manager for Vibe?
Vibe is managed by Stratatech, 604-393-3846.
What is the strata plan number for Vibe?
The strata plan number for Vibe is BCS2854.
Is Vibe freehold or leasehold?
Vibe is FREEHOLD STRATA.
Where is Vibe located?
Vibe is located at 45555 Yale Rd. in Chilliwack, Chilliwack.
How is the real estate market at Vibe?
In the past year 6 units sold at Vibe, averaging $311,450; there are currently 13 active listings for sale.

Sales Information

Sales Websiterdgltd.net/communities/pastprojects/vibe/vibeindex.htm
Sales Phone604-701-6166
Sales Emailinfo@yourvibe.ca
Sales Address45567 Yale Road West Chilliwack, BC

Listings for Sale Near Vibe 🔎 MLS® Search »

Active listings nearby80
Average price$535,015
From$224,900
Up to$1,299,900
Summary — 50 nearest listings
AddressBedBathSqftPrice
304 45555 Yale Rd. 22852 $399,000
408 45561 Yale Rd. 22857 $314,900
113 45555 Yale Rd. 11619 $244,900
307 45555 Yale Rd. 22852 $399,900
101 45567 Yale Rd. 22869 $314,900
209 45567 Yale Rd. 22991 $419,900
201 45559 Yale Rd. 11646 $284,900
402 45559 Yale Rd. 11724 $299,000
204 45559 Yale Rd. 22888 $359,900
403 45562 Airport Rd. 22853 $497,000
Photos
304 45555 YALE ROAD $399,000 304 45555 Yale Rd. · 2bd/2ba · 852sf 408 45561 YALE ROAD $314,900 408 45561 Yale Rd. · 2bd/2ba · 857sf 113 45555 YALE ROAD $244,900 113 45555 Yale Rd. · 1bd/1ba · 619sf 307 45555 YALE ROAD $399,900 307 45555 Yale Rd. · 2bd/2ba · 852sf 101 45567 YALE ROAD $314,900 101 45567 Yale Rd. · 2bd/2ba · 869sf 209 45567 YALE ROAD $419,900 209 45567 Yale Rd. · 2bd/2ba · 991sf 201 45559 YALE ROAD $284,900 201 45559 Yale Rd. · 1bd/1ba · 646sf 402 45559 YALE ROAD $299,000 402 45559 Yale Rd. · 1bd/1ba · 724sf 204 45559 YALE ROAD $359,900 204 45559 Yale Rd. · 2bd/2ba · 888sf 403 45562 AIRPORT ROAD $497,000 403 45562 Airport Rd. · 2bd/2ba · 853sf

Vibe Area Map 🔍 Open larger map ↗